Maryland METAR Reports


Distance/Direction noted is from Ellicott City, MD as the crow flies

KCBE - Cumberland - 118 miles WNW
Updated: Tue, 09/16/2014 12:29 AM
Partly Cloudy
Partly Cloudy
 Wind from N
Wind: N 3 mph
Temperature: 59°F
Dew Point: 54°F
Humidity: 82%
Barometer: 30.09 inHg
Clouds: Partly Cloudy
Visibility: 10 miles
Cloud Details: Partly Cloudy 6000 ft
2014/09/16 04:29 KCBE 160429Z AUTO 35003KT 10SM SCT060 15/12 A3009 RMK AO1
KHGR - Hagerstown - 57 miles NW
Updated: Mon, 09/15/2014 11:53 PM
Overcast
Overcast
 Wind from calm
Wind: Calm
Temperature: 63°F
Dew Point: 54°F
Humidity: 73%
Barometer: 30.05 inHg
Clouds: Overcast
Visibility: 10 miles
Cloud Details: Mostly Cloudy 4500 ft
Overcast 5500 ft
2014/09/16 03:53 KHGR 160353Z AUTO 00000KT 10SM BKN045 OVC055 17/12 A3005 RMK AO2 SLP183 T01670122
 
KFDK - Frederick - 34 miles NW
Updated: Tue, 09/16/2014 12:30 AM
Mostly Cloudy
Mostly Cloudy
 Wind from NNE
Wind: NNE 3 mph
Temperature: 61°F
Dew Point: 59°F
Humidity: 94%
Barometer: 30.07 inHg
Clouds: Mostly Cloudy
Visibility: 10 miles
Cloud Details: Mostly Cloudy 4800 ft
Mostly Cloudy 7000 ft
2014/09/16 04:30 KFDK 160430Z AUTO 03003KT 10SM BKN048 BKN070 16/15 A3007 RMK AO2
KGAI - Gaithersburg - 26 miles SW
Updated: Tue, 09/16/2014 12:35 AM
Clear
Clear
 Wind from SSE
Wind: SSE 3 mph
Temperature: 63°F
Dew Point: 57°F
Humidity: 83%
Barometer: 30.08 inHg
Clouds: Clear
Visibility: 10 miles
2014/09/16 04:35 KGAI 160435Z AUTO 16003KT 10SM CLR 17/14 A3008 RMK AO1
 
KBWI - BWI Airport - 15 miles SE
Updated: Mon, 09/15/2014 11:54 PM
Overcast
Overcast
 Wind from calm
Wind: Calm
Temperature: 63°F
Dew Point: 55°F
Humidity: 77%
Barometer: 30.05 inHg
Clouds: Overcast
Visibility: 10 miles
Cloud Details: Overcast 25000 ft
2014/09/16 03:54 KBWI 160354Z 00000KT 10SM OVC250 17/13 A3005 RMK AO2 SLP175 T01720133
KNAK - Annapolis - 32 miles SSE
Updated: Mon, 09/15/2014 11:54 PM
Clear
Clear
 Wind from S
Wind: S 8 mph
Temperature: 66°F
Dew Point: 59°F
Humidity: 78%
Barometer: 30.05 inHg
Clouds: Clear
Visibility: 10 miles
2014/09/16 03:54 KNAK 160354Z AUTO 18007KT 10SM CLR 19/15 A3005 RMK AO2 SLP179 T01890150
 
KESN - Easton - 63 miles SE
Updated: Tue, 09/16/2014 12:42 AM
Mostly Cloudy
Mostly Cloudy
 Wind from calm
Wind: Calm
Temperature: 63°F
Dew Point: 61°F
Humidity: 94%
Barometer: 30.09 inHg
Clouds: Mostly Cloudy
Visibility: 10 miles
Cloud Details: Partly Cloudy 2300 ft
Partly Cloudy 3600 ft
Mostly Cloudy 4400 ft
2014/09/16 04:42 KESN 160442Z AUTO 00000KT 10SM SCT023 SCT036 BKN044 17/16 A3009 RMK AO2 T01740159
KSBY - Salisbury - 112 miles SE
Updated: Mon, 09/15/2014 11:54 PM

 
2014/09/16 03:54 KSBY 160354Z AUTO RMK AO2 SLPNO PWINO FZRANO TSNO $